Decoded Metar for KRID ( in ) (IATA:) | Meteo·Mobile Aviation Weather
aviador You're here:

KRID Decoded Metar

in
Report Time2018-12-16 10:15:00
UTC Time2018-12-16 10:24:11
Flight Rules lifr LIFR
Wind330° at 11 kt
W.Decomp.*RWY 33: 11.0 kt HW 0 kt LCW
RWY 24: 11.0 kt RCW
W.Rank330° ranks 32
Current wind is above 330° avg. (7.5)
Visibility4023 m
Phenomena:Mist
Clouds:Overcast 004 Hf
Ceiling400 ft
Temp01°C
Dew Point01°C (100% RH)
AAT-4.8°C
QNH1016 hPa
Raw Report
KRID 161015Z AUTO 33011KT 2 1/2SM BR OVC004 01/01 A3000 RMK
AO2=

Extra information for KRID:More info

Social comments